createdAt,value
2023-03-16T00:01:06.500Z,2.45
2023-03-16T00:03:33.352Z,2.15
2023-03-16T00:05:59.810Z,2.20
2023-03-16T00:08:26.159Z,2.50
2023-03-16T00:10:54.137Z,2.13
2023-03-16T00:13:23.796Z,2.40
2023-03-16T00:15:51.660Z,2.45
2023-03-16T00:18:18.322Z,2.25
2023-03-16T00:20:44.753Z,3.22
2023-03-16T00:23:11.058Z,2.55
2023-03-16T00:25:37.425Z,2.38
2023-03-16T00:28:03.786Z,2.30
2023-03-16T00:30:31.451Z,2.15
2023-03-16T00:32:57.907Z,2.38
2023-03-16T00:35:24.933Z,2.30
2023-03-16T00:37:51.417Z,2.40
2023-03-16T00:40:17.830Z,2.58
2023-03-16T00:42:44.180Z,2.28
2023-03-16T00:45:10.661Z,2.88
2023-03-16T00:47:36.978Z,2.38
2023-03-16T00:50:03.396Z,2.15
2023-03-16T00:52:30.144Z,2.60
2023-03-16T00:54:56.534Z,2.40
2023-03-16T00:57:25.167Z,2.35
2023-03-16T00:59:52.478Z,2.60
2023-03-16T01:02:23.318Z,2.80
2023-03-16T01:04:50.412Z,3.05
2023-03-16T01:07:16.810Z,2.83
2023-03-16T01:09:43.467Z,2.80
2023-03-16T01:12:11.441Z,2.75
2023-03-16T01:14:38.188Z,2.70
2023-03-16T01:17:06.441Z,2.80
2023-03-16T01:19:35.662Z,3.25
2023-03-16T01:22:05.864Z,2.53
2023-03-16T01:24:32.436Z,2.92
2023-03-16T01:26:58.863Z,3.30
2023-03-16T01:29:25.207Z,2.60
2023-03-16T01:31:51.639Z,3.08
2023-03-16T01:34:18.760Z,3.00
2023-03-16T01:36:47.328Z,2.63
2023-03-16T01:39:14.431Z,2.72
2023-03-16T01:41:41.918Z,2.90
2023-03-16T01:44:16.295Z,3.40
2023-03-16T01:46:44.184Z,3.35
2023-03-16T01:49:23.852Z,3.58
2023-03-16T01:51:53.257Z,2.78
2023-03-16T01:54:28.017Z,2.90
2023-03-16T01:57:13.828Z,3.35
2023-03-16T01:59:43.123Z,2.78
2023-03-16T02:02:10.528Z,2.83
2023-03-16T02:04:55.357Z,3.10
2023-03-16T02:07:24.592Z,3.22
2023-03-16T02:09:53.473Z,3.15
2023-03-16T02:12:20.362Z,3.15
2023-03-16T02:14:47.552Z,3.20
2023-03-16T02:17:15.270Z,3.70
2023-03-16T02:19:44.721Z,3.08
2023-03-16T02:22:11.188Z,3.70
2023-03-16T02:24:38.170Z,3.17
2023-03-16T02:27:06.381Z,3.47
2023-03-16T02:29:47.664Z,3.38
2023-03-16T02:32:14.855Z,3.22
2023-03-16T02:34:41.851Z,3.17
2023-03-16T02:37:08.844Z,3.10
2023-03-16T02:39:35.371Z,2.53
2023-03-16T02:42:02.138Z,3.13
2023-03-16T02:44:33.605Z,3.80
2023-03-16T02:47:02.668Z,3.10
2023-03-16T02:49:28.997Z,2.80
2023-03-16T02:51:57.471Z,2.88
2023-03-16T02:54:24.291Z,3.25
2023-03-16T02:56:51.203Z,3.00
2023-03-16T02:59:17.827Z,2.90
2023-03-16T03:01:44.139Z,3.50
2023-03-16T03:04:10.645Z,3.50
2023-03-16T03:06:36.988Z,2.67
2023-03-16T03:09:03.753Z,3.35
2023-03-16T03:11:30.181Z,3.00
2023-03-16T03:13:56.935Z,3.50
2023-03-16T03:16:23.400Z,3.35
2023-03-16T03:18:49.825Z,3.33
2023-03-16T03:21:16.800Z,3.13
2023-03-16T03:23:46.511Z,3.55
2023-03-16T03:26:15.211Z,3.05
2023-03-16T03:28:41.658Z,3.00
2023-03-16T03:31:12.732Z,3.28
2023-03-16T03:33:39.086Z,2.85
2023-03-16T03:36:05.594Z,2.83
2023-03-16T03:38:31.970Z,2.88
2023-03-16T03:40:59.569Z,3.03
2023-03-16T03:43:26.509Z,3.03
2023-03-16T03:45:56.991Z,3.20
2023-03-16T03:48:23.856Z,3.13
2023-03-16T03:50:50.544Z,3.05
2023-03-16T03:53:16.873Z,3.33
2023-03-16T03:55:43.214Z,2.92
2023-03-16T03:58:09.520Z,3.15
2023-03-16T04:00:35.841Z,2.72
2023-03-16T04:03:02.309Z,2.50
2023-03-16T04:05:28.810Z,2.83
2023-03-16T04:07:57.598Z,3.10
2023-03-16T04:10:27.882Z,2.75
2023-03-16T04:12:55.793Z,2.65
2023-03-16T04:15:22.386Z,2.80
2023-03-16T04:17:49.303Z,1.80
2023-03-16T04:20:19.114Z,2.60
2023-03-16T04:22:45.921Z,2.58
2023-03-16T04:25:13.399Z,3.80
2023-03-16T04:27:39.874Z,2.72
2023-03-16T04:30:07.315Z,2.55
2023-03-16T04:32:34.066Z,2.42
2023-03-16T04:35:00.461Z,2.60
2023-03-16T04:37:26.769Z,2.15
2023-03-16T04:39:53.122Z,2.47
2023-03-16T04:42:19.503Z,2.40
2023-03-16T04:44:45.809Z,2.05
2023-03-16T04:47:13.719Z,2.20
2023-03-16T04:49:40.107Z,2.22
2023-03-16T04:52:06.919Z,2.17
2023-03-16T04:54:33.601Z,2.33
2023-03-16T04:57:00.525Z,2.15
2023-03-16T04:59:27.447Z,1.90
2023-03-16T05:01:53.979Z,1.85
2023-03-16T05:04:23.214Z,1.90
2023-03-16T05:06:49.654Z,1.98
2023-03-16T05:09:15.976Z,2.10
2023-03-16T05:11:42.426Z,1.60
2023-03-16T05:14:09.004Z,1.50
2023-03-16T05:16:35.696Z,1.52
2023-03-16T05:19:02.049Z,1.35
2023-03-16T05:21:31.965Z,1.30
2023-03-16T05:23:58.350Z,1.30
2023-03-16T05:26:27.465Z,1.10
2023-03-16T05:28:53.757Z,1.08
2023-03-16T05:31:20.292Z,0.85
2023-03-16T05:33:46.761Z,0.90
2023-03-16T05:36:13.675Z,0.82
2023-03-16T05:38:40.053Z,1.30
2023-03-16T05:41:06.479Z,1.33
2023-03-16T05:43:34.350Z,1.23
2023-03-16T05:46:00.730Z,1.10
2023-03-16T05:48:27.472Z,1.02
2023-03-16T05:50:54.791Z,1.23
2023-03-16T05:53:23.785Z,1.17
2023-03-16T05:55:53.237Z,1.15
2023-03-16T05:58:19.562Z,1.40
2023-03-16T06:00:45.892Z,1.48
2023-03-16T06:03:13.024Z,1.20
2023-03-16T06:05:39.420Z,1.23
2023-03-16T06:08:05.778Z,1.50
2023-03-16T06:10:32.096Z,1.33
2023-03-16T06:12:59.928Z,1.42
2023-03-16T06:15:26.721Z,1.17
2023-03-16T06:17:53.081Z,1.23
2023-03-16T06:20:19.509Z,1.65
2023-03-16T06:22:45.877Z,1.17
2023-03-16T06:25:12.915Z,1.23
2023-03-16T06:27:39.931Z,1.10
2023-03-16T06:30:07.201Z,1.00
2023-03-16T06:32:33.641Z,1.27
2023-03-16T06:35:02.177Z,0.82
2023-03-16T06:37:28.940Z,1.17
2023-03-16T06:39:55.272Z,1.38
2023-03-16T06:42:21.673Z,0.95
2023-03-16T06:44:48.117Z,1.33
2023-03-16T06:47:14.475Z,1.13
2023-03-16T06:49:40.846Z,1.10
2023-03-16T06:52:07.319Z,1.33
2023-03-16T06:54:35.293Z,1.20
2023-03-16T06:57:01.618Z,1.40
2023-03-16T06:59:27.988Z,1.20
2023-03-16T07:01:54.303Z,1.30
2023-03-16T07:04:20.767Z,1.15
2023-03-16T07:06:47.251Z,1.27
2023-03-16T07:09:13.704Z,1.30
2023-03-16T07:11:40.354Z,1.40
2023-03-16T07:14:07.034Z,1.00
2023-03-16T07:16:33.473Z,1.17
2023-03-16T07:18:59.828Z,1.08
2023-03-16T07:21:26.324Z,1.45
2023-03-16T07:23:52.688Z,1.42
2023-03-16T07:26:19.045Z,1.60
2023-03-16T07:28:45.373Z,1.77
2023-03-16T07:31:12.858Z,1.27
2023-03-16T07:33:40.011Z,0.93
2023-03-16T07:36:06.739Z,1.23
2023-03-16T07:38:33.448Z,1.00
2023-03-16T07:41:00.360Z,1.48
2023-03-16T07:43:26.761Z,1.17
2023-03-16T07:45:53.219Z,1.08
2023-03-16T07:48:19.778Z,0.70
2023-03-16T07:50:49.631Z,1.30
2023-03-16T07:53:16.596Z,1.27
2023-03-16T07:55:43.217Z,1.20
2023-03-16T07:58:10.742Z,1.23
2023-03-16T08:00:37.902Z,1.17
2023-03-16T08:03:04.305Z,1.40
2023-03-16T08:05:32.545Z,1.25
2023-03-16T08:07:58.992Z,1.10
2023-03-16T08:10:25.317Z,1.10
2023-03-16T08:12:51.800Z,1.13
2023-03-16T08:15:18.237Z,0.90
2023-03-16T08:17:45.672Z,1.27
2023-03-16T08:20:14.804Z,1.05
2023-03-16T08:22:42.132Z,1.45
2023-03-16T08:25:10.712Z,0.93
2023-03-16T08:27:40.249Z,1.88
2023-03-16T08:30:07.605Z,1.17
2023-03-16T08:32:34.059Z,1.00
2023-03-16T08:35:00.668Z,1.02
2023-03-16T08:37:27.529Z,1.15
2023-03-16T08:39:54.315Z,1.30
2023-03-16T08:42:21.171Z,1.45
2023-03-16T08:44:50.836Z,1.20
2023-03-16T08:47:17.928Z,1.13
2023-03-16T08:49:44.798Z,1.13
2023-03-16T08:52:12.897Z,1.20
2023-03-16T08:54:39.618Z,1.25
2023-03-16T08:57:06.072Z,0.73
2023-03-16T08:59:32.444Z,1.17
2023-03-16T09:01:58.894Z,0.90
2023-03-16T09:04:25.455Z,0.95
2023-03-16T09:07:05.912Z,0.95
2023-03-16T09:09:35.534Z,1.33
2023-03-16T09:12:02.260Z,0.80
2023-03-16T09:14:29.082Z,1.00
2023-03-16T09:16:56.496Z,0.82
2023-03-16T09:19:22.973Z,1.13
2023-03-16T09:21:49.323Z,1.30
2023-03-16T09:24:15.756Z,1.30
2023-03-16T09:26:42.690Z,1.10
2023-03-16T09:29:09.469Z,1.50
2023-03-16T09:31:36.260Z,1.42
2023-03-16T09:34:02.873Z,0.93
2023-03-16T09:36:29.366Z,0.90
2023-03-16T09:38:56.245Z,1.20
2023-03-16T09:41:22.569Z,0.90
2023-03-16T09:43:49.321Z,1.13
2023-03-16T09:46:27.730Z,1.60
2023-03-16T09:48:55.754Z,1.20
2023-03-16T09:51:42.429Z,1.42
2023-03-16T09:54:16.235Z,1.20
2023-03-16T09:56:43.298Z,1.45
2023-03-16T09:59:11.935Z,1.20
2023-03-16T10:01:58.226Z,1.45
2023-03-16T10:07:09.679Z,1.15
2023-03-16T10:09:38.218Z,1.35
2023-03-16T10:12:07.125Z,1.27
2023-03-16T10:15:00.164Z,0.93
2023-03-16T10:17:28.977Z,1.23
2023-03-16T10:20:02.574Z,1.10
2023-03-16T10:22:31.224Z,1.17
2023-03-16T10:25:15.819Z,1.48
2023-03-16T10:27:43.525Z,1.27
2023-03-16T10:30:19.737Z,1.08
2023-03-16T10:32:46.517Z,1.10
2023-03-16T10:35:31.768Z,1.02
2023-03-16T10:37:58.626Z,0.95
2023-03-16T10:40:26.271Z,1.35
2023-03-16T10:42:53.415Z,1.15
2023-03-16T10:45:22.820Z,1.73
2023-03-16T10:47:49.203Z,1.20
2023-03-16T10:50:18.484Z,1.45
2023-03-16T10:52:46.977Z,1.48
2023-03-16T10:55:16.333Z,1.20
2023-03-16T10:57:43.600Z,1.00
2023-03-16T11:00:20.593Z,1.30
2023-03-16T11:02:49.178Z,1.23
2023-03-16T11:05:15.989Z,1.30
2023-03-16T11:07:49.952Z,1.83
2023-03-16T11:10:28.935Z,1.00
2023-03-16T11:12:56.929Z,0.80
2023-03-16T11:15:26.643Z,0.73
2023-03-16T11:17:56.214Z,1.25
2023-03-16T11:20:26.387Z,1.08
2023-03-16T11:22:52.822Z,0.95
2023-03-16T11:25:21.231Z,1.10
2023-03-16T11:27:47.576Z,1.10
2023-03-16T11:30:19.990Z,0.90
2023-03-16T11:32:53.476Z,1.00
2023-03-16T11:35:37.248Z,1.10
2023-03-16T11:38:18.765Z,0.60
2023-03-16T11:40:48.928Z,1.17
2023-03-16T11:43:21.118Z,1.02
2023-03-16T11:45:51.841Z,1.00
2023-03-16T11:48:22.556Z,0.70
2023-03-16T11:50:49.731Z,1.05
2023-03-16T11:53:34.950Z,1.13
2023-03-16T11:56:08.009Z,0.55
2023-03-16T11:58:37.462Z,0.70
2023-03-16T12:01:50.571Z,0.70
2023-03-16T12:04:38.901Z,0.50
2023-03-16T12:07:25.860Z,0.90
2023-03-16T12:10:06.150Z,0.95
2023-03-16T12:12:40.530Z,1.20
2023-03-16T12:15:06.857Z,0.68
2023-03-16T12:17:35.238Z,1.27
2023-03-16T12:20:07.110Z,0.68
2023-03-16T12:22:37.402Z,1.10
2023-03-16T12:25:13.083Z,1.58
2023-03-16T12:27:41.340Z,1.17
2023-03-16T12:30:17.306Z,1.17
2023-03-16T12:32:50.342Z,0.93
2023-03-16T12:35:22.019Z,0.88
2023-03-16T12:38:08.485Z,1.10
2023-03-16T12:40:39.541Z,1.10
2023-03-16T12:43:09.902Z,0.80
2023-03-16T12:45:46.239Z,1.00
2023-03-16T12:48:28.348Z,0.95
2023-03-16T12:50:55.977Z,1.17
2023-03-16T12:53:27.045Z,0.80
2023-03-16T12:55:53.639Z,0.75
2023-03-16T12:58:20.000Z,0.90
2023-03-16T13:00:56.693Z,1.05
2023-03-16T13:03:25.289Z,0.75
2023-03-16T13:05:53.378Z,0.80
2023-03-16T13:08:21.145Z,1.63
2023-03-16T13:11:04.610Z,1.02
2023-03-16T13:13:32.800Z,0.60
2023-03-16T13:16:10.085Z,0.80
2023-03-16T13:18:38.684Z,1.00
2023-03-16T13:21:16.504Z,0.95
2023-03-16T13:23:52.090Z,0.80
2023-03-16T13:26:22.902Z,1.27
2023-03-16T13:28:54.306Z,0.70
2023-03-16T13:31:20.885Z,1.05
2023-03-16T13:33:48.218Z,1.05
2023-03-16T13:36:15.269Z,0.82
2023-03-16T13:38:41.694Z,0.60
2023-03-16T13:41:11.801Z,0.80
2023-03-16T13:43:39.193Z,0.68
2023-03-16T13:46:18.940Z,0.73
2023-03-16T13:48:47.299Z,1.10
2023-03-16T13:51:16.030Z,0.70
2023-03-16T13:53:43.349Z,0.77
2023-03-16T13:56:13.278Z,0.93
2023-03-16T13:58:40.220Z,0.90
2023-03-16T14:01:33.984Z,1.25
2023-03-16T14:04:08.677Z,0.82
2023-03-16T14:06:35.790Z,2.15
2023-03-16T14:09:04.673Z,0.80
2023-03-16T14:11:31.440Z,0.85
2023-03-16T14:13:58.753Z,1.20
2023-03-16T14:16:26.331Z,1.25
2023-03-16T14:18:54.711Z,0.90
2023-03-16T14:21:26.223Z,1.58
2023-03-16T14:23:55.125Z,0.90
2023-03-16T14:26:24.631Z,1.10
2023-03-16T14:29:11.969Z,0.63
2023-03-16T14:31:39.757Z,0.50
2023-03-16T14:34:26.981Z,1.10
2023-03-16T14:36:53.429Z,1.42
2023-03-16T14:39:20.899Z,0.70
2023-03-16T14:41:52.021Z,0.75
2023-03-16T14:44:27.599Z,0.60
2023-03-16T14:46:56.974Z,1.05
2023-03-16T14:49:37.357Z,0.73
2023-03-16T14:52:21.843Z,0.85
2023-03-16T14:54:48.215Z,0.80
2023-03-16T14:57:16.667Z,0.77
2023-03-16T14:59:43.678Z,0.80
2023-03-16T15:02:21.224Z,0.63
2023-03-16T15:04:48.481Z,0.93
2023-03-16T15:07:21.445Z,1.00
2023-03-16T15:09:49.535Z,0.85
2023-03-16T15:12:18.113Z,0.80
2023-03-16T15:15:03.232Z,1.02
2023-03-16T15:17:29.614Z,0.65
2023-03-16T15:19:56.278Z,0.65
2023-03-16T15:22:27.414Z,0.73
2023-03-16T15:24:54.570Z,0.68
2023-03-16T15:27:22.998Z,0.75
2023-03-16T15:29:49.329Z,0.80
2023-03-16T15:32:16.948Z,1.15
2023-03-16T15:34:45.815Z,0.50
2023-03-16T15:37:14.029Z,0.50
2023-03-16T15:39:40.444Z,0.52
2023-03-16T15:42:17.642Z,0.80
2023-03-16T15:44:44.888Z,0.80
2023-03-16T15:47:11.505Z,0.60
2023-03-16T15:49:47.100Z,0.40
2023-03-16T15:52:22.871Z,0.52
2023-03-16T15:54:49.318Z,0.82
2023-03-16T15:57:18.908Z,0.85
2023-03-16T15:59:46.603Z,0.88
2023-03-16T16:02:29.708Z,0.70
2023-03-16T16:04:56.989Z,0.60
2023-03-16T16:07:23.660Z,0.70
2023-03-16T16:09:50.046Z,0.70
2023-03-16T16:12:17.685Z,0.77
2023-03-16T16:14:44.058Z,0.70
2023-03-16T16:17:11.702Z,0.70
2023-03-16T16:19:38.225Z,0.65
2023-03-16T16:22:04.765Z,0.60
2023-03-16T16:24:31.180Z,0.57
2023-03-16T16:26:57.553Z,0.73
2023-03-16T16:29:31.965Z,0.52
2023-03-16T16:31:58.935Z,0.63
2023-03-16T16:34:27.080Z,0.65
2023-03-16T16:36:54.386Z,0.60
2023-03-16T16:39:21.135Z,1.00
2023-03-16T16:41:48.493Z,0.90
2023-03-16T16:44:20.178Z,0.70
2023-03-16T16:46:48.108Z,0.60
2023-03-16T16:49:17.391Z,0.77
2023-03-16T16:51:43.788Z,0.90
2023-03-16T16:54:17.635Z,0.70
2023-03-16T16:56:44.404Z,1.02
2023-03-16T16:59:13.499Z,0.73
2023-03-16T17:01:40.067Z,0.65
2023-03-16T17:04:11.406Z,1.35
2023-03-16T17:06:37.750Z,0.90
2023-03-16T17:09:05.328Z,0.85
2023-03-16T17:11:32.219Z,1.00
2023-03-16T17:14:00.572Z,0.70
2023-03-16T17:16:27.759Z,0.73
2023-03-16T17:18:55.352Z,0.93
2023-03-16T17:21:23.805Z,1.30
2023-03-16T17:23:50.696Z,0.73
2023-03-16T17:26:19.124Z,1.00
2023-03-16T17:28:50.375Z,0.93
2023-03-16T17:31:19.394Z,0.70
2023-03-16T17:33:45.966Z,0.80
2023-03-16T17:36:16.143Z,0.70
2023-03-16T17:38:42.673Z,0.82
2023-03-16T17:41:18.335Z,0.98
2023-03-16T17:43:44.650Z,0.90
2023-03-16T17:46:11.152Z,1.00
2023-03-16T17:48:38.472Z,0.88
2023-03-16T17:51:04.915Z,0.68
2023-03-16T17:53:31.425Z,0.95
2023-03-16T17:55:57.743Z,2.28
2023-03-16T17:58:28.897Z,1.00
2023-03-16T18:00:55.933Z,1.15
2023-03-16T18:03:24.009Z,0.80
2023-03-16T18:05:50.564Z,1.17
2023-03-16T18:08:17.945Z,1.08
2023-03-16T18:10:45.190Z,0.98
2023-03-16T18:13:19.869Z,0.98
2023-03-16T18:15:47.147Z,1.17
2023-03-16T18:18:16.550Z,0.98
2023-03-16T18:20:44.799Z,1.40
2023-03-16T18:23:18.622Z,1.40
2023-03-16T18:25:45.714Z,1.13
2023-03-16T18:28:13.814Z,1.65
2023-03-16T18:30:41.698Z,1.10
2023-03-16T18:33:12.699Z,1.42
2023-03-16T18:35:39.161Z,1.17
2023-03-16T18:38:12.347Z,1.00
2023-03-16T18:40:38.752Z,1.20
2023-03-16T18:43:05.958Z,1.30
2023-03-16T18:45:32.505Z,1.10
2023-03-16T18:47:58.990Z,1.25
2023-03-16T18:50:28.706Z,1.10
2023-03-16T18:52:55.392Z,0.90
2023-03-16T18:55:23.781Z,1.20
2023-03-16T18:57:52.658Z,1.52
2023-03-16T19:00:21.270Z,0.90
2023-03-16T19:02:52.571Z,1.30
2023-03-16T19:05:21.773Z,1.10
2023-03-16T19:07:49.463Z,1.70
2023-03-16T19:10:26.431Z,1.00
2023-03-16T19:12:53.337Z,0.88
2023-03-16T19:15:21.759Z,1.45
2023-03-16T19:17:48.694Z,1.27
2023-03-16T19:20:16.668Z,1.00
2023-03-16T19:22:44.443Z,0.80
2023-03-16T19:25:18.301Z,1.10
2023-03-16T19:27:45.559Z,1.00
2023-03-16T19:30:20.014Z,1.20
2023-03-16T19:32:46.571Z,1.88
2023-03-16T19:35:17.540Z,0.95
2023-03-16T19:37:44.268Z,1.10
2023-03-16T19:40:14.562Z,0.88
2023-03-16T19:42:42.350Z,1.05
2023-03-16T19:45:19.182Z,1.02
2023-03-16T19:47:46.341Z,0.77
2023-03-16T19:50:17.049Z,0.90
2023-03-16T19:52:43.887Z,1.23
2023-03-16T19:55:14.269Z,0.80
2023-03-16T19:57:40.781Z,1.00
2023-03-16T20:00:08.962Z,0.98
2023-03-16T20:02:35.499Z,1.00
2023-03-16T20:05:01.928Z,0.95
2023-03-16T20:07:28.287Z,1.02
2023-03-16T20:09:55.398Z,1.20
2023-03-16T20:12:23.867Z,1.25
2023-03-16T20:14:51.385Z,1.00
2023-03-16T20:17:25.053Z,1.00
2023-03-16T20:19:51.811Z,1.00
2023-03-16T20:22:25.635Z,0.90
2023-03-16T20:24:54.261Z,1.00
2023-03-16T20:27:22.570Z,1.00
2023-03-16T20:29:49.426Z,1.35
2023-03-16T20:32:23.244Z,1.10
2023-03-16T20:34:51.261Z,1.10
2023-03-16T20:37:28.242Z,1.20
2023-03-16T20:39:55.629Z,1.17
2023-03-16T20:42:27.164Z,1.08
2023-03-16T20:44:53.502Z,1.20
2023-03-16T20:47:21.759Z,1.42
2023-03-16T20:49:49.053Z,1.58
2023-03-16T20:52:16.403Z,1.05
2023-03-16T20:54:42.920Z,1.10
2023-03-16T20:57:17.330Z,1.20
2023-03-16T20:59:46.943Z,1.30
2023-03-16T21:02:25.378Z,1.25
2023-03-16T21:04:51.902Z,1.70
2023-03-16T21:07:18.494Z,1.48
2023-03-16T21:09:50.069Z,1.48
2023-03-16T21:12:27.605Z,1.55
2023-03-16T21:14:55.485Z,1.55
2023-03-16T21:17:25.890Z,1.20
2023-03-16T21:19:52.791Z,1.30
2023-03-16T21:22:37.484Z,1.08
2023-03-16T21:25:03.957Z,1.27
2023-03-16T21:27:32.004Z,1.30
2023-03-16T21:30:00.204Z,1.27
2023-03-16T21:32:27.631Z,1.40
2023-03-16T21:34:54.699Z,1.30
2023-03-16T21:37:24.155Z,1.20
2023-03-16T21:39:53.812Z,1.38
2023-03-16T21:42:20.625Z,1.60
2023-03-16T21:44:47.220Z,1.33
2023-03-16T21:47:21.638Z,1.30
2023-03-16T21:49:48.248Z,1.33
2023-03-16T21:52:24.571Z,1.77
2023-03-16T21:54:52.433Z,1.42
2023-03-16T21:57:19.714Z,1.33
2023-03-16T21:59:46.526Z,1.33
2023-03-16T22:02:23.959Z,1.40
2023-03-16T22:04:51.783Z,1.67
2023-03-16T22:07:18.254Z,1.50
2023-03-16T22:09:44.760Z,1.50
2023-03-16T22:12:11.754Z,1.20
2023-03-16T22:14:38.366Z,1.42
2023-03-16T22:17:04.972Z,1.33
2023-03-16T22:19:31.864Z,1.23
2023-03-16T22:21:58.507Z,1.60
2023-03-16T22:24:27.099Z,1.20
2023-03-16T22:26:53.968Z,1.40
2023-03-16T22:29:31.647Z,1.50
2023-03-16T22:31:59.434Z,1.05
2023-03-16T22:34:31.279Z,1.27
2023-03-16T22:36:57.886Z,1.52
2023-03-16T22:39:24.541Z,1.33
2023-03-16T22:41:51.010Z,1.25
2023-03-16T22:44:22.682Z,1.27
2023-03-16T22:46:49.596Z,1.50
2023-03-16T22:49:20.125Z,1.27
2023-03-16T22:51:46.877Z,1.50
2023-03-16T22:54:15.304Z,1.40
2023-03-16T22:56:42.606Z,1.52
2023-03-16T22:59:13.336Z,1.50
2023-03-16T23:01:41.325Z,1.40
2023-03-16T23:04:15.133Z,1.40
2023-03-16T23:06:41.941Z,2.00
2023-03-16T23:09:09.933Z,1.50
2023-03-16T23:11:37.937Z,1.88
2023-03-16T23:14:11.674Z,1.65
2023-03-16T23:16:38.183Z,1.67
2023-03-16T23:19:15.318Z,1.50
2023-03-16T23:21:49.094Z,1.48
2023-03-16T23:24:15.453Z,1.48
2023-03-16T23:26:41.886Z,1.70
2023-03-16T23:29:09.821Z,1.98
2023-03-16T23:31:36.978Z,1.23
2023-03-16T23:34:14.152Z,1.67
2023-03-16T23:36:40.940Z,1.42
2023-03-16T23:39:07.718Z,1.50
2023-03-16T23:41:34.867Z,1.50
2023-03-16T23:44:01.394Z,1.80
2023-03-16T23:46:29.128Z,1.30
2023-03-16T23:48:57.014Z,1.90
2023-03-16T23:51:26.391Z,1.50
2023-03-16T23:53:53.484Z,1.85
2023-03-16T23:56:19.957Z,1.75
2023-03-16T23:58:46.311Z,2.00
